Time;durP1;ratioP1;P1;durP2;ratioP2;P2;SDS_P1;SDS_P2;PMS_P1;PMS_P2;Temp;Humidity;BMP_temperature;BMP_pressure;BME280_temperature;BME280_humidity;BME280_pressure;Samples;Min_cycle;Max_cycle;Signal;HPM_P1;HPM_P2
2023/09/29 00:01:16;;;;;;;1.67;1.58;;;21.20;67.20;;;;;;5021539;28;20069;-51
2023/09/29 00:03:48;;;;;;;2.45;1.80;;;21.20;67.10;;;;;;5011182;28;20077;-52
2023/09/29 00:06:15;;;;;;;2.60;1.48;;;21.30;67.00;;;;;;5011975;28;20104;-48
2023/09/29 00:08:45;;;;;;;2.75;2.10;;;21.30;67.00;;;;;;5025742;28;20132;-50
2023/09/29 00:11:14;;;;;;;2.38;1.80;;;21.30;67.00;;;;;;5021796;28;20046;-51
2023/09/29 00:13:43;;;;;;;2.38;1.80;;;21.30;66.90;;;;;;5019213;28;20038;-51
2023/09/29 00:16:12;;;;;;;2.25;1.80;;;21.40;66.90;;;;;;5007704;28;20497;-48
2023/09/29 00:18:39;;;;;;;3.78;1.70;;;21.40;66.80;;;;;;5014167;28;20040;-49
2023/09/29 00:21:06;;;;;;;1.90;1.55;;;21.40;67.00;;;;;;5020304;28;20136;-48
2023/09/29 00:23:35;;;;;;;1.90;1.65;;;21.40;66.90;;;;;;5010361;28;20050;-48
2023/09/29 00:26:05;;;;;;;3.00;1.90;;;21.40;66.80;;;;;;5018378;28;20055;-52
2023/09/29 00:28:39;;;;;;;1.77;1.67;;;21.50;66.80;;;;;;5014008;28;20038;-51
2023/09/29 00:31:06;;;;;;;1.58;1.38;;;21.40;66.60;;;;;;5005476;28;20047;-50
2023/09/29 00:33:33;;;;;;;3.97;1.58;;;21.50;66.70;;;;;;5011317;28;20029;-49
2023/09/29 00:36:00;;;;;;;2.22;2.00;;;21.50;66.70;;;;;;5010067;28;20654;-51
2023/09/29 00:38:30;;;;;;;2.17;1.98;;;21.50;66.60;;;;;;5029163;28;20041;-51
2023/09/29 00:40:56;;;;;;;2.03;1.65;;;21.50;66.60;;;;;;5024463;28;20510;-49
2023/09/29 00:43:27;;;;;;;2.17;1.98;;;21.50;66.50;;;;;;5024051;28;20038;-52
2023/09/29 00:45:54;;;;;;;3.85;1.77;;;21.50;66.60;;;;;;5022684;28;20053;-49
2023/09/29 00:48:22;;;;;;;3.30;2.20;;;21.50;66.60;;;;;;5022131;28;20034;-52
2023/09/29 00:50:50;;;;;;;1.60;1.50;;;21.50;66.50;;;;;;5024874;28;20045;-47
2023/09/29 00:53:19;;;;;;;3.47;1.80;;;21.50;66.60;;;;;;5010191;28;20050;-52
2023/09/29 00:55:47;;;;;;;5.05;1.83;;;21.50;66.50;;;;;;5009611;28;20100;-48
2023/09/29 00:58:17;;;;;;;3.15;1.90;;;21.50;66.50;;;;;;5004502;28;20042;-48
2023/09/29 01:00:45;;;;;;;2.13;1.50;;;21.50;66.60;;;;;;5004708;28;20104;-48
2023/09/29 01:03:15;;;;;;;1.92;1.50;;;21.50;66.70;;;;;;5018295;28;20046;-51
2023/09/29 01:05:52;;;;;;;3.17;2.05;;;21.50;66.60;;;;;;5005897;28;20481;-48
2023/09/29 01:08:25;;;;;;;2.90;1.42;;;21.60;66.80;;;;;;5013726;28;20038;-51
2023/09/29 01:10:55;;;;;;;1.60;1.50;;;21.60;66.60;;;;;;5024137;28;20188;-47
2023/09/29 01:13:25;;;;;;;1.60;1.33;;;21.60;66.60;;;;;;5003774;28;20782;-51
2023/09/29 01:15:54;;;;;;;1.90;1.42;;;21.60;66.50;;;;;;5025675;28;20065;-48
2023/09/29 01:18:23;;;;;;;1.63;1.52;;;21.60;66.60;;;;;;5014097;28;20034;-51
2023/09/29 01:20:53;;;;;;;3.50;1.50;;;21.60;66.60;;;;;;5013854;28;20043;-52
2023/09/29 01:23:20;;;;;;;1.88;1.63;;;21.60;66.50;;;;;;5020576;28;20454;-51
2023/09/29 01:25:46;;;;;;;3.35;1.70;;;21.70;66.60;;;;;;5012383;28;20554;-48
2023/09/29 01:28:13;;;;;;;2.80;1.80;;;21.70;66.60;;;;;;5002818;28;20069;-49
2023/09/29 01:30:44;;;;;;;1.70;1.60;;;21.70;66.60;;;;;;5001132;28;20129;-48
2023/09/29 01:33:12;;;;;;;;;;;21.70;66.60;;;;;;5004027;28;20039;-49
2023/09/29 01:35:43;;;;;;;1.38;1.27;;;21.80;66.40;;;;;;5007345;28;19947;-50
2023/09/29 01:38:12;;;;;;;2.67;1.70;;;21.70;66.10;;;;;;5012084;28;20042;-51
2023/09/29 01:40:39;;;;;;;2.53;1.38;;;21.70;66.10;;;;;;5025385;28;20039;-48
2023/09/29 01:43:06;;;;;;;2.80;1.42;;;21.70;66.30;;;;;;5008711;28;20070;-48
2023/09/29 01:45:35;;;;;;;2.63;1.80;;;21.70;66.30;;;;;;5022411;28;20049;-52
2023/09/29 01:48:07;;;;;;;6.00;1.75;;;21.70;66.40;;;;;;5023526;28;20141;-52
2023/09/29 01:50:37;;;;;;;2.97;1.80;;;21.70;66.40;;;;;;5010584;28;20156;-49
2023/09/29 01:53:07;;;;;;;1.80;1.33;;;21.70;66.50;;;;;;5023424;28;20045;-49
2023/09/29 01:55:36;;;;;;;2.92;1.80;;;21.70;66.50;;;;;;5003597;28;20112;-52
2023/09/29 01:58:03;;;;;;;1.88;1.35;;;21.70;66.60;;;;;;5019445;28;20042;-48
2023/09/29 02:00:38;;;;;;;2.83;1.63;;;21.70;66.60;;;;;;4999215;28;20100;-50
2023/09/29 02:03:07;;;;;;;1.52;1.30;;;21.70;66.60;;;;;;5001956;28;20173;-52
2023/09/29 02:05:34;;;;;;;2.17;1.58;;;21.70;66.60;;;;;;5005640;28;20048;-51
2023/09/29 02:08:04;;;;;;;2.13;1.48;;;21.70;66.60;;;;;;5020167;28;20103;-49
2023/09/29 02:10:31;;;;;;;2.10;1.42;;;21.70;67.20;;;;;;5025543;28;20048;-47
2023/09/29 02:12:59;;;;;;;2.75;1.85;;;21.70;66.70;;;;;;5014093;28;20062;-48
2023/09/29 02:15:34;;;;;;;2.75;1.80;;;21.70;66.80;;;;;;5015537;28;20068;-47
2023/09/29 02:18:04;;;;;;;1.83;1.58;;;21.70;66.80;;;;;;5025132;28;20381;-51
2023/09/29 02:20:31;;;;;;;2.03;1.83;;;21.70;66.90;;;;;;5025252;28;20092;-52
2023/09/29 02:22:59;;;;;;;2.30;1.45;;;21.70;66.90;;;;;;5016327;28;20116;-49
2023/09/29 02:25:29;;;;;;;2.00;1.52;;;21.70;67.00;;;;;;5012714;28;20041;-52
2023/09/29 02:28:00;;;;;;;2.20;2.00;;;21.60;66.90;;;;;;5025180;28;20049;-50
2023/09/29 02:30:28;;;;;;;1.65;1.50;;;21.70;67.00;;;;;;5016284;28;20038;-51
2023/09/29 02:33:01;;;;;;;1.55;1.45;;;21.70;67.00;;;;;;5012287;28;20487;-52
2023/09/29 02:35:28;;;;;;;4.32;2.00;;;21.70;67.10;;;;;;5005812;28;20034;-52
2023/09/29 02:37:56;;;;;;;2.92;1.38;;;21.70;67.10;;;;;;5021216;28;20564;-51
2023/09/29 02:40:25;;;;;;;1.92;1.73;;;21.60;67.10;;;;;;5017190;28;20166;-48
2023/09/29 02:42:52;;;;;;;4.50;1.60;;;21.70;67.30;;;;;;5011936;28;20100;-52
2023/09/29 02:45:19;;;;;;;1.88;1.40;;;21.70;67.20;;;;;;5011844;28;20072;-48
2023/09/29 02:47:47;;;;;;;1.95;1.73;;;21.70;67.30;;;;;;5017069;28;20136;-52
2023/09/29 02:50:14;;;;;;;4.30;1.58;;;21.70;67.30;;;;;;5025380;28;20049;-50
2023/09/29 02:52:44;;;;;;;2.10;1.50;;;21.70;67.40;;;;;;5020548;28;20034;-51
2023/09/29 02:55:12;;;;;;;2.63;1.60;;;21.70;67.50;;;;;;5001663;28;20042;-53
2023/09/29 02:57:41;;;;;;;3.25;1.50;;;21.70;67.50;;;;;;5001468;28;20041;-52
2023/09/29 03:00:26;;;;;;;2.78;1.90;;;21.70;67.60;;;;;;5002604;28;20042;-50
2023/09/29 03:02:53;;;;;;;2.88;1.77;;;21.70;67.60;;;;;;5007478;28;20042;-52
2023/09/29 03:05:26;;;;;;;3.38;1.33;;;21.70;67.50;;;;;;5001504;28;20065;-48
2023/09/29 03:07:55;;;;;;;2.10;1.90;;;21.70;67.60;;;;;;5016752;28;20071;-50
2023/09/29 03:10:25;;;;;;;1.35;1.25;;;21.70;67.60;;;;;;5026029;28;20076;-49
2023/09/29 03:12:58;;;;;;;2.42;2.22;;;21.70;67.60;;;;;;5015021;28;20125;-52
2023/09/29 03:15:25;;;;;;;3.20;1.00;;;21.70;67.70;;;;;;5020938;28;20123;-52
2023/09/29 03:17:55;;;;;;;1.63;1.45;;;21.60;67.70;;;;;;5026924;28;20033;-48
2023/09/29 03:20:26;;;;;;;2.08;1.67;;;21.60;67.90;;;;;;5019823;28;20138;-52
2023/09/29 03:22:57;;;;;;;3.38;1.92;;;21.60;67.90;;;;;;5018148;28;20098;-52
2023/09/29 03:25:24;;;;;;;2.95;1.40;;;21.60;67.90;;;;;;5023301;28;20082;-52
2023/09/29 03:27:56;;;;;;;2.63;1.85;;;21.60;68.00;;;;;;5027765;28;20111;-51
2023/09/29 03:30:31;;;;;;;2.13;1.40;;;21.60;68.00;;;;;;5010326;28;20136;-53
2023/09/29 03:32:58;;;;;;;4.90;1.50;;;21.60;68.40;;;;;;5022161;28;20037;-48
2023/09/29 03:35:27;;;;;;;3.45;1.35;;;21.60;68.10;;;;;;5005831;28;20050;-52
2023/09/29 03:37:56;;;;;;;5.20;2.03;;;21.60;68.20;;;;;;5022113;28;20049;-51
2023/09/29 03:40:23;;;;;;;1.83;1.33;;;21.60;68.20;;;;;;5026628;28;20037;-52
2023/09/29 03:42:51;;;;;;;1.40;1.23;;;21.60;68.40;;;;;;5024272;28;20116;-50
2023/09/29 03:45:18;;;;;;;1.92;1.73;;;21.60;68.40;;;;;;5012486;28;20045;-48
2023/09/29 03:47:46;;;;;;;2.80;1.40;;;21.60;68.40;;;;;;5027391;28;20558;-50
2023/09/29 03:50:13;;;;;;;3.47;1.33;;;21.60;68.40;;;;;;5026856;28;20503;-49
2023/09/29 03:52:45;;;;;;;3.05;1.70;;;21.60;68.40;;;;;;5022152;28;20044;-48
2023/09/29 03:55:14;;;;;;;2.05;1.50;;;21.60;68.40;;;;;;5010560;28;20125;-52
2023/09/29 03:57:41;;;;;;;1.30;1.20;;;21.60;68.40;;;;;;5029600;28;20045;-48
2023/09/29 04:00:12;;;;;;;2.40;1.58;;;21.60;68.40;;;;;;5031594;28;20096;-49
2023/09/29 04:02:42;;;;;;;2.78;1.67;;;21.60;68.40;;;;;;5008788;28;20526;-51
2023/09/29 04:05:12;;;;;;;3.10;1.38;;;21.60;68.40;;;;;;5010168;28;20080;-52
2023/09/29 04:07:40;;;;;;;3.30;2.00;;;21.60;68.50;;;;;;5011184;28;20112;-51
2023/09/29 04:10:14;;;;;;;4.13;1.80;;;21.60;68.50;;;;;;5020008;28;20135;-47
2023/09/29 04:12:47;;;;;;;2.20;1.40;;;21.60;68.60;;;;;;5031498;28;20045;-52
2023/09/29 04:15:16;;;;;;;1.50;1.23;;;21.60;68.50;;;;;;5025510;28;20072;-48
2023/09/29 04:17:43;;;;;;;1.55;1.45;;;21.60;68.50;;;;;;5022311;28;20513;-51
2023/09/29 04:20:10;;;;;;;3.47;1.65;;;21.60;68.60;;;;;;5023849;28;20099;-48
2023/09/29 04:22:42;;;;;;;1.55;1.45;;;21.50;68.70;;;;;;5008451;28;20125;-52
2023/09/29 04:25:11;;;;;;;3.05;1.50;;;21.50;68.80;;;;;;5008435;28;20073;-48
2023/09/29 04:27:41;;;;;;;2.20;1.35;;;21.50;68.70;;;;;;4997994;28;20045;-50
2023/09/29 04:30:12;;;;;;;4.72;1.48;;;21.50;68.80;;;;;;5012096;28;20518;-49
2023/09/29 04:32:40;;;;;;;3.90;2.00;;;21.50;68.90;;;;;;5003627;28;20037;-51
2023/09/29 04:35:08;;;;;;;4.40;1.58;;;21.40;68.80;;;;;;5004758;28;20045;-52
2023/09/29 04:37:34;;;;;;;2.45;1.83;;;21.40;68.90;;;;;;5011877;28;20121;-52
2023/09/29 04:40:02;;;;;;;3.03;1.50;;;21.40;69.10;;;;;;5011911;28;20062;-51
2023/09/29 04:42:31;;;;;;;2.95;1.70;;;21.40;69.20;;;;;;5012089;28;20073;-48
2023/09/29 04:45:03;;;;;;;2.53;1.63;;;21.40;69.40;;;;;;5008476;28;20546;-49
2023/09/29 04:47:31;;;;;;;1.42;1.23;;;21.30;69.40;;;;;;5012030;28;20049;-48
2023/09/29 04:49:59;;;;;;;1.50;1.40;;;21.30;69.50;;;;;;5011991;28;20040;-49
2023/09/29 04:52:29;;;;;;;2.00;1.60;;;21.30;69.60;;;;;;5006984;28;20407;-49
2023/09/29 04:54:55;;;;;;;3.72;2.17;;;21.30;69.60;;;;;;5009577;28;20133;-48
2023/09/29 04:57:22;;;;;;;2.05;1.40;;;21.30;69.70;;;;;;5010048;28;20116;-52
2023/09/29 04:59:50;;;;;;;4.43;1.60;;;21.30;69.80;;;;;;5009730;28;20073;-52
2023/09/29 05:02:19;;;;;;;5.40;2.10;;;21.30;69.90;;;;;;5007204;28;20085;-52
2023/09/29 05:04:46;;;;;;;5.82;2.00;;;21.30;69.90;;;;;;5006949;28;20041;-48
2023/09/29 05:07:16;;;;;;;8.90;1.98;;;21.30;69.90;;;;;;5011306;28;20054;-52
2023/09/29 05:09:45;;;;;;;2.60;1.40;;;21.30;70.00;;;;;;5009068;28;20373;-50
2023/09/29 05:12:12;;;;;;;1.85;1.42;;;21.30;69.80;;;;;;5000947;28;20479;-51
2023/09/29 05:14:40;;;;;;;3.88;1.63;;;21.40;69.90;;;;;;5008457;28;20045;-48
2023/09/29 05:17:09;;;;;;;2.67;1.70;;;21.30;69.80;;;;;;5011182;28;20046;-49
2023/09/29 05:19:36;;;;;;;1.52;1.33;;;21.30;69.80;;;;;;5011885;28;20515;-48
2023/09/29 05:22:03;;;;;;;3.80;1.45;;;21.30;69.90;;;;;;5008679;28;20209;-51
2023/09/29 05:24:33;;;;;;;1.60;1.35;;;21.30;69.90;;;;;;5012308;28;20500;-50
2023/09/29 05:27:02;;;;;;;3.63;1.70;;;21.30;70.20;;;;;;5012782;28;20543;-49
2023/09/29 05:29:31;;;;;;;2.50;1.13;;;21.30;70.00;;;;;;5013704;28;20049;-51
2023/09/29 05:31:57;;;;;;;1.58;1.30;;;21.30;70.10;;;;;;5010658;28;20035;-52
2023/09/29 05:34:28;;;;;;;1.85;1.27;;;21.30;70.10;;;;;;5009001;28;20042;-48
2023/09/29 05:36:55;;;;;;;3.10;1.67;;;21.30;70.10;;;;;;5011362;28;20076;-52
2023/09/29 05:39:23;;;;;;;2.63;1.30;;;21.30;70.00;;;;;;5012998;28;20125;-48
2023/09/29 05:41:57;;;;;;;2.28;1.77;;;21.40;70.10;;;;;;5012131;28;20044;-51
2023/09/29 05:44:30;;;;;;;1.48;1.30;;;21.30;70.00;;;;;;5009710;28;20515;-50
2023/09/29 05:46:57;;;;;;;1.63;1.27;;;21.40;70.10;;;;;;5012767;28;20034;-52
2023/09/29 05:49:25;;;;;;;2.53;1.92;;;21.40;70.10;;;;;;5011690;28;20046;-51
2023/09/29 05:51:55;;;;;;;1.40;1.30;;;21.30;70.00;;;;;;5009587;28;20121;-52
2023/09/29 05:54:21;;;;;;;2.08;1.63;;;21.40;70.10;;;;;;5005289;28;20121;-48
2023/09/29 05:56:49;;;;;;;2.60;1.60;;;21.30;70.10;;;;;;5008062;28;20124;-52
2023/09/29 05:59:17;;;;;;;3.00;1.65;;;21.30;70.10;;;;;;5007309;28;20061;-48
2023/09/29 06:01:47;;;;;;;2.08;1.75;;;21.30;70.20;;;;;;5005750;28;20046;-52
2023/09/29 06:04:14;;;;;;;4.07;1.60;;;21.30;70.30;;;;;;5002202;28;20048;-52
2023/09/29 06:06:40;;;;;;;3.33;1.83;;;21.30;70.30;;;;;;5008104;28;20554;-51
2023/09/29 06:09:07;;;;;;;3.17;2.50;;;21.30;70.40;;;;;;5010256;28;20551;-48
2023/09/29 06:11:34;;;;;;;7.90;1.90;;;21.30;70.50;;;;;;5010548;28;20049;-49
2023/09/29 06:14:01;;;;;;;2.28;2.08;;;21.30;70.50;;;;;;5002336;28;20048;-52
2023/09/29 06:16:28;;;;;;;2.90;1.95;;;21.30;70.60;;;;;;5005435;28;20041;-52
2023/09/29 06:19:02;;;;;;;3.30;1.92;;;21.30;70.60;;;;;;5012973;28;20270;-52
2023/09/29 06:21:31;;;;;;;3.65;2.33;;;21.30;70.70;;;;;;5010662;28;20415;-52
2023/09/29 06:24:02;;;;;;;6.40;2.42;;;21.30;70.60;;;;;;5005248;28;20052;-52
2023/09/29 06:26:29;;;;;;;2.88;1.95;;;21.30;70.50;;;;;;5000980;28;20050;-52
2023/09/29 06:28:56;;;;;;;3.00;1.83;;;21.40;70.60;;;;;;5009957;28;20100;-52
2023/09/29 06:31:23;;;;;;;5.43;1.90;;;21.40;70.80;;;;;;5009009;28;20084;-52
2023/09/29 06:33:50;;;;;;;3.40;1.88;;;21.40;70.80;;;;;;4995741;28;20133;-53
2023/09/29 06:36:16;;;;;;;2.33;2.13;;;21.30;70.90;;;;;;4996019;28;20054;-51
2023/09/29 06:38:43;;;;;;;3.78;2.42;;;21.40;71.00;;;;;;5009912;28;20041;-52
2023/09/29 06:41:10;;;;;;;2.88;1.70;;;21.50;71.10;;;;;;5002838;28;20647;-52
2023/09/29 06:43:37;;;;;;;1.95;1.70;;;21.50;71.10;;;;;;4994720;28;20053;-52
2023/09/29 06:46:03;;;;;;;2.88;2.10;;;21.50;71.10;;;;;;5005864;28;20084;-52
2023/09/29 06:48:30;;;;;;;4.25;1.55;;;21.60;71.20;;;;;;5009337;28;20052;-48
2023/09/29 06:50:59;;;;;;;2.00;1.67;;;21.60;71.00;;;;;;5001542;28;20498;-51
2023/09/29 06:53:28;;;;;;;5.15;2.05;;;21.70;71.10;;;;;;5010604;28;20057;-52
2023/09/29 06:55:56;;;;;;;2.97;1.92;;;21.70;70.90;;;;;;5006724;28;20038;-52
2023/09/29 06:58:22;;;;;;;2.28;1.80;;;21.80;70.70;;;;;;5014987;28;20042;-49
2023/09/29 07:00:51;;;;;;;4.25;2.10;;;21.90;70.60;;;;;;5008089;28;20033;-52
2023/09/29 07:03:18;;;;;;;7.50;1.88;;;21.90;70.50;;;;;;5007358;28;20142;-50
2023/09/29 07:05:46;;;;;;;3.50;2.20;;;22.00;70.40;;;;;;5005904;28;20038;-51
2023/09/29 07:08:13;;;;;;;6.75;1.83;;;22.00;70.30;;;;;;5012608;28;20418;-52
2023/09/29 07:10:40;;;;;;;8.23;2.25;;;22.00;70.20;;;;;;5012219;28;20049;-52
2023/09/29 07:13:08;;;;;;;4.47;1.73;;;22.10;70.10;;;;;;5007378;28;20562;-51
2023/09/29 07:15:35;;;;;;;6.05;2.20;;;22.10;70.00;;;;;;5009299;28;20570;-52
2023/09/29 07:18:02;;;;;;;5.30;1.85;;;22.20;70.00;;;;;;4998223;28;20044;-52
2023/09/29 07:20:30;;;;;;;5.10;1.73;;;22.20;70.00;;;;;;5016215;28;20046;-51
2023/09/29 07:22:57;;;;;;;3.90;2.53;;;22.20;70.00;;;;;;5007868;28;20104;-52
2023/09/29 07:25:24;;;;;;;5.53;1.90;;;22.20;70.00;;;;;;5008019;28;20084;-51
2023/09/29 07:27:50;;;;;;;6.13;2.65;;;22.20;70.00;;;;;;5011172;28;20633;-53
2023/09/29 07:30:19;;;;;;;3.30;2.00;;;22.30;70.10;;;;;;5013176;28;20060;-52
2023/09/29 07:32:46;;;;;;;7.97;2.50;;;22.30;70.20;;;;;;5011184;28;20046;-51
2023/09/29 07:35:13;;;;;;;4.75;2.17;;;22.30;70.20;;;;;;5011658;28;20042;-52
2023/09/29 07:37:40;;;;;;;6.97;2.30;;;22.40;70.20;;;;;;5017011;28;20111;-53
2023/09/29 07:40:08;;;;;;;3.58;1.88;;;22.40;70.00;;;;;;5018783;28;20069;-53
2023/09/29 07:42:34;;;;;;;2.45;1.65;;;22.50;70.10;;;;;;5017877;28;20045;-53
2023/09/29 07:45:03;;;;;;;2.75;1.55;;;22.50;70.00;;;;;;5003845;28;20057;-52
2023/09/29 07:47:30;;;;;;;3.50;1.95;;;22.60;70.10;;;;;;5018781;28;20046;-52
2023/09/29 07:49:57;;;;;;;2.60;1.52;;;22.60;69.70;;;;;;5018018;28;20092;-52
2023/09/29 07:52:28;;;;;;;2.22;1.85;;;22.70;69.60;;;;;;5007864;28;20049;-52
2023/09/29 07:54:55;;;;;;;3.87;1.80;;;22.70;69.70;;;;;;5010125;28;20117;-53
2023/09/29 07:57:22;;;;;;;4.38;1.60;;;22.80;69.70;;;;;;5017373;28;20054;-52
2023/09/29 07:59:49;;;;;;;2.25;1.65;;;22.90;69.50;;;;;;5015491;28;20118;-52
2023/09/29 08:02:15;;;;;;;2.92;2.05;;;22.90;69.10;;;;;;5009133;28;20056;-51
2023/09/29 08:04:42;;;;;;;4.07;2.20;;;23.00;68.90;;;;;;5012660;28;20041;-50
2023/09/29 08:07:12;;;;;;;2.70;1.75;;;23.00;68.80;;;;;;5016364;28;20050;-52
2023/09/29 08:09:39;;;;;;;2.38;1.85;;;23.10;68.40;;;;;;5010860;28;20050;-51
2023/09/29 08:12:06;;;;;;;3.45;2.08;;;23.00;68.20;;;;;;5013893;28;20069;-51
2023/09/29 08:14:33;;;;;;;1.88;1.77;;;23.00;67.90;;;;;;5021063;28;20103;-52
2023/09/29 08:16:59;;;;;;;4.18;1.65;;;23.10;67.60;;;;;;5016551;28;20042;-51
2023/09/29 08:19:28;;;;;;;2.20;2.00;;;23.10;67.30;;;;;;5021150;28;20092;-52
2023/09/29 08:21:55;;;;;;;2.72;2.28;;;23.10;67.10;;;;;;5010659;28;20093;-52
2023/09/29 08:24:22;;;;;;;2.65;1.92;;;23.10;66.80;;;;;;5015800;28;20042;-51
2023/09/29 08:26:48;;;;;;;3.70;1.95;;;23.10;66.90;;;;;;5018615;28;20037;-52
2023/09/29 08:29:16;;;;;;;3.38;2.20;;;23.10;67.10;;;;;;5014808;28;20084;-52
2023/09/29 08:31:45;;;;;;;2.78;1.70;;;23.20;67.00;;;;;;5010659;28;20084;-52
2023/09/29 08:34:12;;;;;;;4.18;1.70;;;23.30;67.30;;;;;;5009503;28;20046;-52
2023/09/29 08:36:39;;;;;;;5.30;2.33;;;23.40;67.20;;;;;;5010420;28;20041;-52
2023/09/29 08:39:06;;;;;;;2.22;2.03;;;23.40;66.70;;;;;;5014184;28;20049;-52
2023/09/29 08:41:35;;;;;;;4.20;2.53;;;23.50;66.20;;;;;;5015470;28;20132;-51
2023/09/29 08:44:08;;;;;;;2.13;1.80;;;23.50;66.30;;;;;;5009069;28;20049;-52
2023/09/29 08:46:39;;;;;;;2.53;1.95;;;23.70;65.50;;;;;;5009106;28;20500;-51
2023/09/29 08:49:08;;;;;;;5.07;1.90;;;23.70;65.80;;;;;;5013955;28;20508;-51
2023/09/29 08:51:36;;;;;;;3.42;2.00;;;23.80;65.50;;;;;;5014824;28;20058;-52
2023/09/29 08:54:05;;;;;;;3.15;1.73;;;23.80;65.30;;;;;;5018615;28;20092;-51
2023/09/29 08:56:34;;;;;;;2.65;1.98;;;23.90;64.90;;;;;;5017585;28;20049;-52
2023/09/29 08:59:01;;;;;;;2.85;2.03;;;23.90;64.60;;;;;;5018286;28;20554;-52
2023/09/29 09:01:30;;;;;;;3.88;2.13;;;24.00;64.40;;;;;;5003016;28;20046;-52
2023/09/29 09:03:57;;;;;;;4.57;2.05;;;24.00;64.20;;;;;;5007264;28;20534;-49
2023/09/29 09:06:26;;;;;;;3.00;2.05;;;24.00;64.10;;;;;;5012985;28;20455;-49
2023/09/29 09:08:54;;;;;;;4.50;1.88;;;24.10;64.30;;;;;;5007745;28;20075;-53
2023/09/29 09:11:21;;;;;;;3.47;2.08;;;24.10;64.40;;;;;;5016116;28;20866;-52
2023/09/29 09:14:03;;;;;;;2.83;1.90;;;24.20;64.60;;;;;;5006540;28;20078;-52
2023/09/29 09:16:32;;;;;;;;;;;24.30;64.20;;;;;;5003846;28;20046;-51
2023/09/29 09:19:12;;;;;;;2.83;1.65;;;24.30;64.70;;;;;;5018709;28;20016;-48
2023/09/29 09:21:41;;;;;;;2.85;1.60;;;24.40;63.60;;;;;;5006238;28;20045;-52
2023/09/29 09:24:20;;;;;;;4.70;2.30;;;24.50;64.10;;;;;;5002923;28;20124;-53
2023/09/29 09:27:00;;;;;;;3.03;1.85;;;24.50;63.60;;;;;;5007994;28;20050;-53
2023/09/29 09:29:29;;;;;;;3.85;2.05;;;24.70;63.60;;;;;;5018719;28;20042;-51
2023/09/29 09:31:59;;;;;;;3.42;1.85;;;24.70;62.60;;;;;;5015165;28;20088;-53
2023/09/29 09:34:33;;;;;;;4.90;1.98;;;24.70;62.50;;;;;;5008797;28;20073;-53
2023/09/29 09:37:00;;;;;;;4.53;2.55;;;24.80;61.90;;;;;;5012686;28;20393;-51
2023/09/29 09:39:28;;;;;;;6.15;2.65;;;24.80;61.80;;;;;;5019794;28;20492;-52
2023/09/29 09:41:56;;;;;;;5.07;3.08;;;24.80;61.70;;;;;;5018586;28;20680;-51
2023/09/29 09:44:25;;;;;;;5.38;2.50;;;24.80;61.60;;;;;;5012949;28;20057;-52
2023/09/29 09:46:53;;;;;;;5.50;2.83;;;24.80;61.60;;;;;;5005938;28;20066;-53
2023/09/29 09:49:28;;;;;;;3.22;2.10;;;24.90;61.70;;;;;;5013418;28;20124;-53
2023/09/29 09:52:03;;;;;;;3.60;2.70;;;24.90;61.20;;;;;;5013278;28;20049;-52
2023/09/29 09:54:34;;;;;;;3.92;2.58;;;25.00;61.20;;;;;;5011963;28;20042;-52
2023/09/29 09:57:11;;;;;;;5.60;2.80;;;25.00;61.10;;;;;;5011274;28;20508;-48
2023/09/29 09:59:39;;;;;;;3.58;2.67;;;25.00;60.80;;;;;;5006224;28;20124;-52
2023/09/29 10:02:07;;;;;;;5.40;2.38;;;25.10;61.30;;;;;;5005790;28;20093;-51
2023/09/29 10:04:38;;;;;;;6.68;2.90;;;25.00;60.60;;;;;;5006492;28;20048;-53
2023/09/29 10:07:06;;;;;;;5.35;2.75;;;25.00;60.50;;;;;;5011520;28;20131;-51
2023/09/29 10:09:49;;;;;;;5.25;2.90;;;25.00;60.60;;;;;;5019503;28;20080;-53
2023/09/29 10:12:27;;;;;;;5.85;2.75;;;25.10;60.30;;;;;;5014785;28;20635;-48
2023/09/29 10:14:55;;;;;;;7.43;3.40;;;25.10;60.40;;;;;;5018977;28;20045;-52
2023/09/29 10:17:22;;;;;;;5.45;3.35;;;25.00;60.00;;;;;;5017724;28;20037;-50
2023/09/29 10:19:51;;;;;;;4.90;2.60;;;25.10;60.30;;;;;;5023842;28;20510;-51
2023/09/29 10:22:25;;;;;;;7.53;4.13;;;25.00;60.30;;;;;;5008477;28;20069;-51
2023/09/29 10:24:59;;;;;;;6.32;3.28;;;25.10;60.20;;;;;;5019694;28;20064;-51
2023/09/29 10:27:34;;;;;;;5.55;2.88;;;25.10;60.00;;;;;;5017188;28;20125;-52
2023/09/29 10:30:16;;;;;;;5.53;3.22;;;25.10;60.00;;;;;;5012946;28;20045;-52
2023/09/29 10:32:48;;;;;;;7.07;3.20;;;25.20;59.70;;;;;;5013624;28;20041;-53
2023/09/29 10:35:21;;;;;;;8.33;4.00;;;25.20;59.50;;;;;;5009063;28;20128;-49
2023/09/29 10:37:54;;;;;;;5.47;3.05;;;25.20;59.60;;;;;;5001035;28;20077;-52
2023/09/29 10:40:32;;;;;;;6.25;4.05;;;25.20;59.70;;;;;;5012842;28;20054;-53
2023/09/29 10:43:02;;;;;;;4.93;2.70;;;25.30;59.20;;;;;;5021968;28;20509;-52
2023/09/29 10:45:40;;;;;;;7.13;2.90;;;25.30;59.70;;;;;;5007858;28;20037;-51
2023/09/29 10:48:08;;;;;;;6.65;3.22;;;25.30;59.60;;;;;;5015001;28;20086;-51
2023/09/29 10:50:49;;;;;;;7.80;3.63;;;25.30;59.60;;;;;;5022518;28;20065;-52
2023/09/29 10:53:21;;;;;;;5.75;3.00;;;25.20;59.30;;;;;;5003564;28;20500;-53
2023/09/29 10:55:51;;;;;;;7.32;3.30;;;25.20;60.10;;;;;;5013027;28;20415;-48
2023/09/29 10:58:27;;;;;;;5.30;2.83;;;25.20;60.60;;;;;;5021933;28;20046;-51
2023/09/29 11:00:54;;;;;;;5.25;3.08;;;25.20;60.10;;;;;;5010569;28;20156;-52
2023/09/29 11:03:24;;;;;;;6.57;3.55;;;25.40;60.20;;;;;;5001043;28;20064;-51
2023/09/29 11:05:55;;;;;;;7.07;3.42;;;25.40;59.90;;;;;;5005350;28;20082;-50
2023/09/29 11:08:33;;;;;;;5.20;3.08;;;25.50;59.40;;;;;;5007175;28;20042;-52
2023/09/29 11:11:04;;;;;;;6.63;3.40;;;25.60;59.00;;;;;;5027714;23;20096;-51
2023/09/29 11:13:34;;;;;;;6.00;2.70;;;25.60;59.10;;;;;;4994267;28;20062;-50
2023/09/29 11:16:04;;;;;;;7.05;2.85;;;25.60;58.90;;;;;;4997070;28;20045;-50
2023/09/29 11:18:38;;;;;;;5.00;3.30;;;25.70;59.00;;;;;;5007004;28;20038;-52
2023/09/29 11:21:11;;;;;;;6.93;3.60;;;25.70;58.90;;;;;;5012152;28;20045;-51
2023/09/29 11:23:45;;;;;;;6.25;3.08;;;25.80;59.20;;;;;;5013342;28;20034;-51
2023/09/29 11:26:13;;;;;;;7.60;3.58;;;25.80;58.70;;;;;;5009930;28;20255;-51
2023/09/29 11:28:51;;;;;;;4.85;2.83;;;25.80;58.80;;;;;;5010114;28;20088;-51
2023/09/29 11:31:20;;;;;;;7.10;3.20;;;25.80;58.60;;;;;;5010508;28;20117;-50
2023/09/29 11:33:51;;;;;;;4.28;3.30;;;25.80;58.80;;;;;;5011083;28;20059;-50
2023/09/29 11:36:21;;;;;;;5.93;3.05;;;25.80;58.90;;;;;;5011044;28;20042;-49
2023/09/29 11:38:49;;;;;;;6.32;2.92;;;25.80;59.40;;;;;;5010038;28;20038;-49
2023/09/29 11:41:18;;;;;;;4.28;2.30;;;25.90;59.40;;;;;;5010317;28;20058;-51
2023/09/29 11:43:45;;;;;;;7.93;2.90;;;25.90;59.20;;;;;;5009051;28;20045;-50
2023/09/29 11:46:18;;;;;;;5.25;2.45;;;25.90;59.00;;;;;;5008918;28;20061;-49
2023/09/29 11:48:47;;;;;;;6.63;3.25;;;25.90;59.20;;;;;;5009761;28;20060;-51
2023/09/29 11:51:15;;;;;;;5.13;2.17;;;25.80;59.10;;;;;;5009672;28;20048;-51
2023/09/29 11:53:43;;;;;;;7.45;3.00;;;25.80;59.30;;;;;;5011108;28;20033;-51
2023/09/29 11:56:11;;;;;;;5.25;2.60;;;25.80;59.40;;;;;;5008847;28;20034;-51
2023/09/29 11:58:45;;;;;;;7.32;2.47;;;25.70;59.30;;;;;;5009918;28;20250;-52
2023/09/29 12:01:12;;;;;;;5.07;2.65;;;25.80;59.30;;;;;;5009055;28;20053;-51
2023/09/29 12:03:40;;;;;;;5.05;2.30;;;25.80;59.60;;;;;;5024553;28;20112;-51
2023/09/29 12:06:09;;;;;;;5.45;2.55;;;25.80;59.50;;;;;;5008873;28;20092;-51
2023/09/29 12:08:35;;;;;;;5.13;2.08;;;25.80;59.30;;;;;;5009495;28;20411;-49
2023/09/29 12:11:08;;;;;;;3.17;1.83;;;25.90;59.30;;;;;;5009128;28;20668;-51
2023/09/29 12:13:36;;;;;;;3.60;1.73;;;25.80;59.20;;;;;;5008690;28;20038;-51
2023/09/29 12:16:05;;;;;;;2.58;1.52;;;25.90;58.90;;;;;;5007898;28;20064;-51
2023/09/29 12:18:33;;;;;;;2.47;1.48;;;25.80;58.90;;;;;;5010626;28;20046;-50
2023/09/29 12:21:07;;;;;;;5.03;2.58;;;25.80;59.10;;;;;;5015039;28;20049;-48
2023/09/29 12:23:37;;;;;;;3.88;1.92;;;25.80;60.00;;;;;;5012017;28;20030;-53
2023/09/29 12:26:10;;;;;;;3.83;1.88;;;25.70;60.60;;;;;;5011585;28;20069;-53
2023/09/29 12:28:43;;;;;;;4.70;2.47;;;25.60;60.60;;;;;;5012975;28;20104;-53
2023/09/29 12:31:17;;;;;;;4.72;2.05;;;25.40;61.00;;;;;;5011872;28;20107;-54
2023/09/29 12:33:46;;;;;;;4.70;2.17;;;25.40;61.60;;;;;;5014233;28;20412;-53
2023/09/29 12:36:17;;;;;;;4.55;1.92;;;25.10;61.90;;;;;;5011910;28;20056;-54
2023/09/29 12:38:44;;;;;;;4.57;2.30;;;24.90;62.70;;;;;;5012591;28;20092;-54
2023/09/29 12:41:15;;;;;;;3.03;1.70;;;24.80;63.30;;;;;;5012622;28;20034;-54
2023/09/29 12:43:45;;;;;;;4.30;2.28;;;24.60;64.40;;;;;;5014016;28;20099;-54
2023/09/29 12:46:14;;;;;;;4.10;2.58;;;24.50;64.70;;;;;;5012909;28;20056;-53
2023/09/29 12:48:43;;;;;;;3.08;2.15;;;24.40;65.00;;;;;;5012503;28;20041;-53
2023/09/29 12:51:20;;;;;;;5.13;2.17;;;24.30;65.70;;;;;;5013967;28;20092;-53
2023/09/29 12:53:54;;;;;;;3.42;1.80;;;24.40;66.40;;;;;;5011627;28;20069;-54
2023/09/29 12:56:30;;;;;;;3.38;1.67;;;24.30;66.10;;;;;;5011568;28;20116;-50
2023/09/29 12:59:00;;;;;;;4.55;2.28;;;24.30;66.20;;;;;;5014094;28;20702;-51